Time;durP1;ratioP1;P1;durP2;ratioP2;P2;SDS_P1;SDS_P2;PMS_P1;PMS_P2;Temp;Humidity;BMP_temperature;BMP_pressure;BME280_temperature;BME280_humidity;BME280_pressure;Samples;Min_cycle;Max_cycle;Signal;HPM_P1;HPM_P2
2023/03/16 00:00:41;;;;;;;15.43;6.25;;;;;;;;;;5037815;28;20053;-80
2023/03/16 00:03:18;;;;;;;19.15;6.63;;;;;;;;;;5039411;28;20045;-79
2023/03/16 00:05:48;;;;;;;16.10;6.22;;;;;;;;;;5051232;28;20046;-80
2023/03/16 00:08:16;;;;;;;13.70;6.10;;;;;;;;;;5018993;28;20046;-80
2023/03/16 00:10:46;;;;;;;25.80;6.22;;;;;;;;;;5017567;28;20046;-80
2023/03/16 00:13:13;;;;;;;16.50;6.25;;;;;;;;;;5018707;28;20057;-80
2023/03/16 00:15:40;;;;;;;14.50;5.78;;;;;;;;;;5018932;28;20038;-80
2023/03/16 00:18:07;;;;;;;15.13;5.93;;;;;;;;;;5020006;28;20053;-81
2023/03/16 00:20:34;;;;;;;13.10;5.35;;;;;;;;;;5017385;28;20045;-80
2023/03/16 00:23:01;;;;;;;17.23;5.82;;;;;;;;;;5018845;28;20136;-80
2023/03/16 00:25:28;;;;;;;20.63;6.05;;;;;;;;;;5017630;28;20076;-80
2023/03/16 00:27:55;;;;;;;20.70;6.35;;;;;;;;;;5016601;28;20149;-80
2023/03/16 00:30:21;;;;;;;18.55;6.28;;;;;;;;;;5033189;28;20077;-81
2023/03/16 00:32:48;;;;;;;19.88;6.43;;;;;;;;;;5022192;28;20046;-80
2023/03/16 00:35:16;;;;;;;18.52;6.82;;;;;;;;;;5045944;28;20080;-79
2023/03/16 00:37:43;;;;;;;18.27;7.32;;;;;;;;;;5048564;28;20089;-81
2023/03/16 00:40:11;;;;;;;17.38;7.28;;;;;;;;;;5047942;28;20051;-80
2023/03/16 00:42:38;;;;;;;14.35;6.57;;;;;;;;;;5016950;28;20054;-80
2023/03/16 00:45:06;;;;;;;15.02;7.22;;;;;;;;;;5058664;28;20113;-80
2023/03/16 00:47:33;;;;;;;18.83;6.95;;;;;;;;;;5042517;28;20182;-80
2023/03/16 00:50:01;;;;;;;20.58;7.30;;;;;;;;;;5030483;28;20049;-80
2023/03/16 00:52:27;;;;;;;21.45;8.50;;;;;;;;;;5029393;28;20073;-80
2023/03/16 00:54:56;;;;;;;20.52;7.95;;;;;;;;;;5083484;28;20041;-81
2023/03/16 00:57:24;;;;;;;18.02;7.78;;;;;;;;;;5084559;28;20049;-82
2023/03/16 00:59:55;;;;;;;27.70;8.00;;;;;;;;;;5052391;28;20056;-80
2023/03/16 01:02:24;;;;;;;20.17;7.80;;;;;;;;;;5052869;28;20029;-80
2023/03/16 01:04:53;;;;;;;20.10;7.35;;;;;;;;;;5068025;28;20061;-80
2023/03/16 01:07:20;;;;;;;18.77;7.55;;;;;;;;;;5084616;28;20064;-80
2023/03/16 01:09:47;;;;;;;17.42;7.30;;;;;;;;;;5049803;28;20244;-79
2023/03/16 01:12:16;;;;;;;20.77;7.43;;;;;;;;;;5051562;28;20053;-80
2023/03/16 01:14:46;;;;;;;17.70;6.75;;;;;;;;;;5050061;28;20036;-80
2023/03/16 01:17:14;;;;;;;20.25;7.20;;;;;;;;;;5043449;28;20109;-80
2023/03/16 01:19:41;;;;;;;16.67;7.88;;;;;;;;;;5075099;28;20041;-80
2023/03/16 01:22:09;;;;;;;27.30;9.20;;;;;;;;;;5042247;28;20065;-79
2023/03/16 01:24:37;;;;;;;19.33;8.32;;;;;;;;;;5040832;28;20045;-80
2023/03/16 01:27:05;;;;;;;22.42;8.38;;;;;;;;;;5036649;28;20045;-79
2023/03/16 01:29:32;;;;;;;22.30;8.60;;;;;;;;;;5035514;28;20052;-79
2023/03/16 01:31:59;;;;;;;29.98;9.50;;;;;;;;;;5034928;28;20037;-78
2023/03/16 01:34:25;;;;;;;21.95;8.95;;;;;;;;;;5034431;28;20045;-79
2023/03/16 01:36:52;;;;;;;23.35;8.95;;;;;;;;;;5033881;28;20057;-79
2023/03/16 01:39:26;;;;;;;25.70;8.75;;;;;;;;;;5033898;28;20045;-78
2023/03/16 01:41:53;;;;;;;31.83;8.98;;;;;;;;;;5033308;28;20128;-79
2023/03/16 01:44:23;;;;;;;28.38;9.82;;;;;;;;;;5034471;28;20048;-79
2023/03/16 01:46:50;;;;;;;21.52;8.93;;;;;;;;;;5066194;28;20048;-77
2023/03/16 01:49:19;;;;;;;21.20;8.90;;;;;;;;;;5033912;28;20225;-77
2023/03/16 01:51:52;;;;;;;21.90;8.50;;;;;;;;;;5030834;28;20060;-80
2023/03/16 01:54:39;;;;;;;17.83;8.10;;;;;;;;;;5048045;28;20110;-78
2023/03/16 01:57:09;;;;;;;19.85;8.27;;;;;;;;;;5028173;28;20458;-78
2023/03/16 01:59:38;;;;;;;21.65;8.23;;;;;;;;;;4993134;28;20121;-78
2023/03/16 02:02:06;;;;;;;19.70;8.02;;;;;;;;;;5027692;28;20077;-80
2023/03/16 02:04:33;;;;;;;24.50;8.75;;;;;;;;;;4998140;28;20096;-79
2023/03/16 02:07:03;;;;;;;24.10;8.65;;;;;;;;;;5033209;28;20121;-79
2023/03/16 02:09:30;;;;;;;29.48;9.57;;;;;;;;;;5013714;28;20085;-79
2023/03/16 02:11:57;;;;;;;19.65;9.07;;;;;;;;;;4998134;28;20054;-79
2023/03/16 02:14:26;;;;;;;17.83;8.15;;;;;;;;;;5028446;28;20056;-80
2023/03/16 02:16:54;;;;;;;21.25;8.27;;;;;;;;;;5011281;28;20058;-79
2023/03/16 02:19:33;;;;;;;22.10;8.38;;;;;;;;;;4995608;28;20042;-78
2023/03/16 02:22:07;;;;;;;21.40;8.05;;;;;;;;;;5009639;28;20098;-79
2023/03/16 02:24:34;;;;;;;22.05;8.98;;;;;;;;;;5004532;28;20133;-79
2023/03/16 02:27:06;;;;;;;24.20;8.23;;;;;;;;;;4989505;28;20045;-79
2023/03/16 02:29:51;;;;;;;20.40;8.35;;;;;;;;;;5021693;28;20043;-79
2023/03/16 02:32:19;;;;;;;24.02;8.35;;;;;;;;;;5021735;28;20426;-78
2023/03/16 02:34:46;;;;;;;20.02;7.72;;;;;;;;;;5016615;28;20509;-80
2023/03/16 02:37:13;;;;;;;16.70;8.15;;;;;;;;;;5016221;28;20096;-80
2023/03/16 02:39:42;;;;;;;21.58;7.55;;;;;;;;;;5016245;28;20104;-79
2023/03/16 02:42:14;;;;;;;18.67;7.72;;;;;;;;;;5016154;28;20141;-81
2023/03/16 02:44:43;;;;;;;23.73;8.93;;;;;;;;;;5050479;28;20108;-81
2023/03/16 02:47:34;;;;;;;23.35;8.35;;;;;;;;;;5017322;28;20037;-81
2023/03/16 02:50:05;;;;;;;20.45;8.35;;;;;;;;;;5012498;28;20782;-79
2023/03/16 02:52:40;;;;;;;20.17;8.30;;;;;;;;;;5027342;28;20045;-79
2023/03/16 02:55:17;;;;;;;21.23;7.90;;;;;;;;;;5011229;28;20040;-78
2023/03/16 02:57:53;;;;;;;24.17;8.90;;;;;;;;;;4996891;28;20066;-79
2023/03/16 03:00:37;;;;;;;23.10;8.00;;;;;;;;;;5014809;28;20127;-79
2023/03/16 03:03:08;;;;;;;20.50;7.90;;;;;;;;;;5034886;28;20076;-80
2023/03/16 03:05:47;;;;;;;31.02;9.93;;;;;;;;;;5018242;28;20050;-77
2023/03/16 03:08:23;;;;;;;26.63;9.15;;;;;;;;;;5018507;28;20387;-79
2023/03/16 03:10:50;;;;;;;21.38;7.93;;;;;;;;;;5012856;28;20073;-81
2023/03/16 03:13:16;;;;;;;27.80;9.00;;;;;;;;;;5015384;28;20129;-81
2023/03/16 03:15:44;;;;;;;25.48;8.90;;;;;;;;;;5049272;28;20065;-78
2023/03/16 03:18:13;;;;;;;21.75;8.38;;;;;;;;;;5014829;28;20049;-78
2023/03/16 03:20:40;;;;;;;23.85;8.80;;;;;;;;;;5031081;28;20100;-81
2023/03/16 03:23:08;;;;;;;29.92;9.63;;;;;;;;;;5039350;28;20045;-80
2023/03/16 03:25:35;;;;;;;35.40;10.60;;;;;;;;;;5036674;28;20784;-81
2023/03/16 03:28:04;;;;;;;26.17;10.02;;;;;;;;;;5033446;28;20076;-79
2023/03/16 03:30:31;;;;;;;24.58;9.30;;;;;;;;;;5033944;28;20117;-78
2023/03/16 03:32:58;;;;;;;22.95;8.63;;;;;;;;;;5033464;28;20625;-78
2023/03/16 03:35:24;;;;;;;25.50;8.55;;;;;;;;;;5032080;28;20513;-79
2023/03/16 03:37:51;;;;;;;22.30;8.00;;;;;;;;;;5031154;28;20049;-80
2023/03/16 03:40:18;;;;;;;19.80;8.05;;;;;;;;;;5029590;28;20144;-79
2023/03/16 03:42:50;;;;;;;21.30;7.68;;;;;;;;;;5032237;28;20119;-79
2023/03/16 03:45:17;;;;;;;21.30;8.13;;;;;;;;;;5032250;28;20477;-79
2023/03/16 03:47:43;;;;;;;25.67;8.07;;;;;;;;;;5034997;28;20049;-81
2023/03/16 03:50:15;;;;;;;18.63;7.05;;;;;;;;;;5035045;28;20041;-79
2023/03/16 03:53:04;;;;;;;18.63;6.97;;;;;;;;;;5004406;28;20477;-79
2023/03/16 03:55:36;;;;;;;20.58;7.38;;;;;;;;;;4995311;28;20050;-79
2023/03/16 03:58:03;;;;;;;18.98;7.60;;;;;;;;;;4995440;28;20054;-80
2023/03/16 04:00:30;;;;;;;19.67;7.20;;;;;;;;;;4996791;28;20051;-80
2023/03/16 04:02:56;;;;;;;18.20;7.32;;;;;;;;;;4998622;28;20112;-80
2023/03/16 04:05:46;;;;;;;15.18;6.80;;;;;;;;;;5007404;28;20124;-79
2023/03/16 04:08:13;;;;;;;16.90;7.28;;;;;;;;;;4996845;28;20070;-80
2023/03/16 04:10:40;;;;;;;16.58;6.50;;;;;;;;;;5029131;28;20042;-80
2023/03/16 04:13:06;;;;;;;15.40;6.60;;;;;;;;;;5009507;28;20050;-80
2023/03/16 04:15:34;;;;;;;15.30;6.15;;;;;;;;;;5022444;28;20077;-80
2023/03/16 04:18:06;;;;;;;14.70;5.93;;;;;;;;;;5067954;28;20049;-80
2023/03/16 04:20:34;;;;;;;16.42;5.95;;;;;;;;;;5016579;28;20101;-80
2023/03/16 04:23:00;;;;;;;15.57;6.00;;;;;;;;;;5000991;28;20050;-81
2023/03/16 04:25:29;;;;;;;15.85;6.00;;;;;;;;;;5012376;28;20525;-79
2023/03/16 04:27:57;;;;;;;15.43;6.22;;;;;;;;;;5007345;28;20062;-79
2023/03/16 04:30:27;;;;;;;16.35;5.97;;;;;;;;;;5040523;28;20068;-79
2023/03/16 04:33:03;;;;;;;19.55;6.72;;;;;;;;;;5008426;28;20070;-78
2023/03/16 04:35:30;;;;;;;14.32;6.63;;;;;;;;;;5007443;28;20073;-78
2023/03/16 04:37:57;;;;;;;20.00;6.18;;;;;;;;;;5011226;28;20100;-81
2023/03/16 04:40:35;;;;;;;16.70;5.85;;;;;;;;;;4993925;28;20041;-79
2023/03/16 04:43:08;;;;;;;17.67;5.60;;;;;;;;;;5009808;28;20048;-80
2023/03/16 04:45:35;;;;;;;19.50;6.30;;;;;;;;;;5011299;28;20073;-80
2023/03/16 04:48:02;;;;;;;13.85;5.65;;;;;;;;;;5015582;28;20070;-81
2023/03/16 04:50:29;;;;;;;12.50;6.28;;;;;;;;;;5046441;28;20045;-79
2023/03/16 04:52:56;;;;;;;13.38;5.72;;;;;;;;;;5019306;28;20049;-80
2023/03/16 04:55:24;;;;;;;12.30;6.03;;;;;;;;;;5009178;28;20040;-79
2023/03/16 04:57:51;;;;;;;15.27;5.25;;;;;;;;;;5006484;28;20073;-79
2023/03/16 05:00:20;;;;;;;16.17;5.75;;;;;;;;;;5026506;28;20123;-79
2023/03/16 05:02:55;;;;;;;16.02;6.03;;;;;;;;;;5009124;28;20060;-79
2023/03/16 05:05:21;;;;;;;11.82;5.35;;;;;;;;;;5031796;28;20080;-79
2023/03/16 05:07:48;;;;;;;15.07;5.85;;;;;;;;;;5045759;28;20045;-80
2023/03/16 05:10:17;;;;;;;13.50;5.28;;;;;;;;;;5036268;28;20070;-78
2023/03/16 05:12:45;;;;;;;15.15;5.90;;;;;;;;;;5032562;28;20045;-79
2023/03/16 05:15:13;;;;;;;21.23;5.35;;;;;;;;;;5035225;28;20141;-78
2023/03/16 05:17:41;;;;;;;11.35;5.00;;;;;;;;;;5034193;28;20052;-79
2023/03/16 05:20:11;;;;;;;14.45;5.20;;;;;;;;;;5035062;28;20054;-79
2023/03/16 05:22:45;;;;;;;14.00;5.28;;;;;;;;;;5034895;28;20037;-79
2023/03/16 05:25:16;;;;;;;21.27;6.07;;;;;;;;;;5033311;28;20054;-79
2023/03/16 05:27:47;;;;;;;14.48;6.13;;;;;;;;;;5011862;28;20042;-79
2023/03/16 05:30:20;;;;;;;13.75;5.65;;;;;;;;;;5027562;28;20038;-79
2023/03/16 05:32:47;;;;;;;14.50;5.78;;;;;;;;;;5028391;28;20048;-78
2023/03/16 05:35:15;;;;;;;18.08;5.65;;;;;;;;;;5035346;28;20044;-79
2023/03/16 05:37:42;;;;;;;15.75;5.95;;;;;;;;;;5037613;28;20046;-79
2023/03/16 05:40:17;;;;;;;16.90;6.20;;;;;;;;;;5037309;28;20178;-78
2023/03/16 05:42:54;;;;;;;16.40;6.00;;;;;;;;;;5037199;28;20103;-78
2023/03/16 05:45:22;;;;;;;15.60;6.18;;;;;;;;;;5040043;28;20057;-78
2023/03/16 05:48:04;;;;;;;17.20;6.30;;;;;;;;;;5037667;28;20408;-78
2023/03/16 05:50:35;;;;;;;14.65;5.80;;;;;;;;;;5036939;28;20120;-80
2023/03/16 05:53:02;;;;;;;18.52;6.43;;;;;;;;;;5036805;28;20457;-79
2023/03/16 05:55:29;;;;;;;13.30;6.20;;;;;;;;;;5037745;28;20068;-79
2023/03/16 05:57:59;;;;;;;15.95;6.13;;;;;;;;;;5030635;28;20120;-79
2023/03/16 06:00:26;;;;;;;13.68;6.65;;;;;;;;;;5075491;28;20576;-79
2023/03/16 06:03:04;;;;;;;15.38;6.35;;;;;;;;;;5037504;28;20533;-78
2023/03/16 06:05:34;;;;;;;14.27;5.72;;;;;;;;;;5033272;28;20037;-79
2023/03/16 06:08:02;;;;;;;14.50;6.50;;;;;;;;;;5040161;28;20329;-79
2023/03/16 06:10:29;;;;;;;14.23;6.00;;;;;;;;;;5040793;28;20037;-80
2023/03/16 06:12:56;;;;;;;18.45;7.50;;;;;;;;;;5040219;28;20042;-81
2023/03/16 06:15:25;;;;;;;16.20;7.30;;;;;;;;;;5039771;28;20041;-81
2023/03/16 06:17:53;;;;;;;18.83;7.45;;;;;;;;;;5038177;28;20049;-81
2023/03/16 06:20:20;;;;;;;19.38;6.55;;;;;;;;;;5036948;28;20036;-79
2023/03/16 06:22:47;;;;;;;19.13;6.80;;;;;;;;;;5024588;28;20069;-80
2023/03/16 06:25:13;;;;;;;20.42;6.05;;;;;;;;;;5018848;28;20047;-80
2023/03/16 06:27:42;;;;;;;15.10;6.15;;;;;;;;;;5017688;28;20463;-78
2023/03/16 06:30:13;;;;;;;15.23;6.18;;;;;;;;;;5002633;28;20046;-80
2023/03/16 06:32:44;;;;;;;16.33;6.57;;;;;;;;;;5018867;28;20057;-80
2023/03/16 06:35:11;;;;;;;15.75;5.82;;;;;;;;;;5017229;28;20475;-79
2023/03/16 06:37:43;;;;;;;14.95;5.50;;;;;;;;;;5012628;28;20061;-78
2023/03/16 06:40:30;;;;;;;14.45;6.13;;;;;;;;;;5018413;28;20042;-80
2023/03/16 06:42:57;;;;;;;12.85;5.57;;;;;;;;;;4998539;28;20560;-79
2023/03/16 06:45:24;;;;;;;13.43;5.85;;;;;;;;;;5014674;28;20382;-79
2023/03/16 06:47:53;;;;;;;14.00;5.75;;;;;;;;;;5016414;28;20053;-80
2023/03/16 06:50:20;;;;;;;15.57;5.78;;;;;;;;;;5017676;28;20402;-80
2023/03/16 06:52:46;;;;;;;17.13;5.47;;;;;;;;;;5022385;28;20065;-79
2023/03/16 06:55:13;;;;;;;15.18;5.75;;;;;;;;;;5016792;28;20524;-80
2023/03/16 06:57:44;;;;;;;11.63;4.72;;;;;;;;;;5017403;28;20061;-82
2023/03/16 07:00:12;;;;;;;15.88;5.00;;;;;;;;;;5017646;28;20052;-79
2023/03/16 07:02:39;;;;;;;21.85;5.53;;;;;;;;;;5020409;28;20108;-80
2023/03/16 07:05:09;;;;;;;10.57;4.55;;;;;;;;;;5017726;28;20092;-79
2023/03/16 07:07:36;;;;;;;13.40;4.63;;;;;;;;;;5034402;28;20041;-80
2023/03/16 07:10:03;;;;;;;12.57;4.25;;;;;;;;;;5072118;28;20048;-80
2023/03/16 07:12:30;;;;;;;13.10;4.30;;;;;;;;;;5039257;28;20048;-79
2023/03/16 07:14:56;;;;;;;17.98;4.40;;;;;;;;;;5041300;28;20060;-80
2023/03/16 07:17:23;;;;;;;10.23;3.65;;;;;;;;;;5077287;28;20091;-79
2023/03/16 07:19:50;;;;;;;8.05;3.40;;;;;;;;;;5046785;28;20080;-80
2023/03/16 07:22:17;;;;;;;10.65;3.95;;;;;;;;;;5044971;28;20493;-80
2023/03/16 07:24:44;;;;;;;9.45;2.90;;;;;;;;;;5041895;28;20098;-80
2023/03/16 07:27:11;;;;;;;12.13;3.85;;;;;;;;;;5035373;28;20204;-80
2023/03/16 07:29:38;;;;;;;13.85;3.13;;;;;;;;;;5036118;28;20045;-80
2023/03/16 07:32:08;;;;;;;11.45;3.30;;;;;;;;;;5036321;28;20575;-80
2023/03/16 07:34:36;;;;;;;10.68;3.53;;;;;;;;;;5035841;28;20144;-80
2023/03/16 07:37:04;;;;;;;11.60;3.30;;;;;;;;;;5069488;28;20060;-81
2023/03/16 07:39:31;;;;;;;8.32;3.00;;;;;;;;;;5036234;28;20095;-79
2023/03/16 07:42:05;;;;;;;10.57;3.15;;;;;;;;;;5035482;28;20132;-80
2023/03/16 07:44:56;;;;;;;7.10;3.15;;;;;;;;;;5047674;28;20041;-80
2023/03/16 07:47:24;;;;;;;10.00;2.50;;;;;;;;;;5034023;28;20064;-80
2023/03/16 07:49:55;;;;;;;11.23;2.92;;;;;;;;;;5068522;28;20266;-81
2023/03/16 07:52:22;;;;;;;11.88;3.10;;;;;;;;;;5035047;28;20045;-82
2023/03/16 07:54:50;;;;;;;9.40;3.25;;;;;;;;;;5035315;28;20049;-82
2023/03/16 07:57:17;;;;;;;9.60;3.58;;;;;;;;;;5033710;28;20057;-80
2023/03/16 07:59:44;;;;;;;11.27;2.72;;;;;;;;;;5035392;28;20129;-81
2023/03/16 08:02:14;;;;;;;10.48;3.25;;;;;;;;;;5035775;28;20045;-82
2023/03/16 08:04:41;;;;;;;7.43;2.97;;;;;;;;;;5034998;28;20042;-81
2023/03/16 08:07:09;;;;;;;7.78;2.75;;;;;;;;;;5051266;28;20065;-80
2023/03/16 08:09:56;;;;;;;11.82;3.00;;;;;;;;;;5035961;28;20061;-80
2023/03/16 08:12:29;;;;;;;15.25;3.00;;;;;;;;;;5036119;28;20434;-80
2023/03/16 08:14:56;;;;;;;5.47;2.38;;;;;;;;;;5036177;28;20127;-81
2023/03/16 08:17:26;;;;;;;9.35;2.78;;;;;;;;;;5035203;28;20041;-81
2023/03/16 08:19:54;;;;;;;9.40;2.47;;;;;;;;;;5067751;28;20056;-80
2023/03/16 08:22:22;;;;;;;5.65;2.25;;;;;;;;;;5033195;28;20052;-79
2023/03/16 08:24:49;;;;;;;11.75;2.90;;;;;;;;;;5031728;28;20064;-80
2023/03/16 08:27:18;;;;;;;8.98;2.53;;;;;;;;;;5032673;28;20045;-80
2023/03/16 08:29:52;;;;;;;5.57;2.00;;;;;;;;;;5000536;28;20137;-80
2023/03/16 08:32:21;;;;;;;7.82;2.40;;;;;;;;;;5015965;28;20046;-79
2023/03/16 08:34:48;;;;;;;9.10;2.17;;;;;;;;;;5013861;28;20419;-80
2023/03/16 08:37:16;;;;;;;5.07;1.70;;;;;;;;;;5012622;28;20048;-80
2023/03/16 08:39:44;;;;;;;10.02;2.50;;;;;;;;;;5032680;28;20448;-80
2023/03/16 08:42:15;;;;;;;5.10;1.70;;;;;;;;;;5018294;28;20104;-80
2023/03/16 08:44:46;;;;;;;6.88;1.45;;;;;;;;;;5029052;28;20530;-79
2023/03/16 08:47:13;;;;;;;14.52;1.75;;;;;;;;;;5033524;28;20140;-80
2023/03/16 08:49:43;;;;;;;5.03;1.40;;;;;;;;;;5018751;28;20121;-80
2023/03/16 08:52:12;;;;;;;8.55;1.40;;;;;;;;;;5036410;28;20387;-80
2023/03/16 08:54:40;;;;;;;3.40;1.30;;;;;;;;;;5035297;28;20041;-80
2023/03/16 08:57:18;;;;;;;8.52;1.20;;;;;;;;;;5038271;28;20068;-81
2023/03/16 08:59:44;;;;;;;6.03;1.17;;;;;;;;;;5040096;28;20121;-79
2023/03/16 09:02:13;;;;;;;6.57;1.02;;;;;;;;;;5041207;28;20049;-80
2023/03/16 09:04:39;;;;;;;6.25;1.10;;;;;;;;;;5040458;28;20056;-80
2023/03/16 09:07:07;;;;;;;7.22;1.33;;;;;;;;;;5038139;28;20053;-80
2023/03/16 09:09:35;;;;;;;6.32;1.10;;;;;;;;;;5040447;28;20363;-81
2023/03/16 09:12:03;;;;;;;5.97;1.10;;;;;;;;;;5046359;28;20045;-80
2023/03/16 09:14:30;;;;;;;3.63;1.02;;;;;;;;;;5047868;28;20072;-80
2023/03/16 09:16:57;;;;;;;9.48;1.40;;;;;;;;;;5050816;28;20203;-78
2023/03/16 09:19:24;;;;;;;7.30;1.33;;;;;;;;;;5044976;28;20053;-79
2023/03/16 09:21:50;;;;;;;4.97;1.10;;;;;;;;;;5053726;28;20049;-79
2023/03/16 09:24:17;;;;;;;6.65;1.15;;;;;;;;;;5047068;28;20033;-78
2023/03/16 09:26:44;;;;;;;8.82;1.30;;;;;;;;;;5047261;28;20078;-79
2023/03/16 09:29:11;;;;;;;7.20;1.27;;;;;;;;;;5043340;28;20111;-80
2023/03/16 09:31:38;;;;;;;6.03;1.10;;;;;;;;;;5038950;28;20061;-78
2023/03/16 09:34:05;;;;;;;5.25;0.90;;;;;;;;;;5033311;28;20042;-79
2023/03/16 09:36:34;;;;;;;5.78;1.30;;;;;;;;;;5041212;28;20049;-79
2023/03/16 09:39:02;;;;;;;5.88;1.10;;;;;;;;;;5038812;28;20060;-80
2023/03/16 09:41:41;;;;;;;5.18;1.08;;;;;;;;;;5031895;28;20096;-80
2023/03/16 09:44:14;;;;;;;4.97;0.93;;;;;;;;;;5036405;28;20045;-80
2023/03/16 09:46:44;;;;;;;6.30;1.15;;;;;;;;;;5038108;28;20538;-79
2023/03/16 09:49:12;;;;;;;5.35;1.08;;;;;;;;;;5030463;28;20099;-80
2023/03/16 09:51:42;;;;;;;3.88;1.08;;;;;;;;;;5039850;28;20075;-80
2023/03/16 09:54:37;;;;;;;7.07;1.23;;;;;;;;;;5037974;28;20061;-80
2023/03/16 09:57:58;;;;;;;7.20;1.30;;;;;;;;;;5028458;28;20472;-79
2023/03/16 10:03:45;;;;;;;3.47;1.08;;;;;;;;;;5021982;28;20521;-79
2023/03/16 10:06:31;;;;;;;7.30;1.98;;;;;;;;;;5013880;28;20079;-78
2023/03/16 10:08:59;;;;;;;2.47;0.70;;;;;;;;;;5031496;28;20045;-78
2023/03/16 10:11:46;;;;;;;7.45;0.90;;;;;;;;;;5033567;28;20045;-78
2023/03/16 10:14:31;;;;;;;4.82;1.45;;;;;;;;;;5019573;28;20172;-79
2023/03/16 10:17:00;;;;;;;3.53;1.17;;;;;;;;;;5033528;28;20156;-79
2023/03/16 10:19:36;;;;;;;6.75;1.00;;;;;;;;;;5034628;28;20053;-78
2023/03/16 10:22:12;;;;;;;2.88;0.70;;;;;;;;;;5035445;28;20053;-81
2023/03/16 10:24:56;;;;;;;4.32;1.15;;;;;;;;;;5036153;28;20107;-80
2023/03/16 10:27:35;;;;;;;3.35;1.15;;;;;;;;;;5029559;28;20053;-81
2023/03/16 10:30:06;;;;;;;7.55;1.05;;;;;;;;;;5037444;28;20219;-79
2023/03/16 10:32:35;;;;;;;5.60;1.15;;;;;;;;;;5036930;28;20112;-79
2023/03/16 10:35:05;;;;;;;4.65;1.13;;;;;;;;;;5038646;28;20303;-78
2023/03/16 10:37:34;;;;;;;4.22;1.00;;;;;;;;;;5036267;28;20037;-80
2023/03/16 10:40:07;;;;;;;3.40;0.90;;;;;;;;;;5041227;28;20056;-77
2023/03/16 10:42:35;;;;;;;4.72;0.98;;;;;;;;;;5037286;28;20405;-78
2023/03/16 10:45:02;;;;;;;6.03;1.00;;;;;;;;;;5035574;28;20045;-78
2023/03/16 10:47:30;;;;;;;3.58;0.98;;;;;;;;;;5035557;28;20452;-78
2023/03/16 10:49:57;;;;;;;4.03;1.38;;;;;;;;;;5033878;28;20891;-79
2023/03/16 10:52:33;;;;;;;4.63;1.10;;;;;;;;;;5040252;28;20095;-80
2023/03/16 10:55:09;;;;;;;8.05;1.50;;;;;;;;;;5039252;28;20071;-80
2023/03/16 10:57:40;;;;;;;6.03;1.30;;;;;;;;;;5041632;28;20049;-79
2023/03/16 11:00:13;;;;;;;6.00;2.03;;;;;;;;;;5042969;28;20076;-81
2023/03/16 11:02:42;;;;;;;5.78;2.33;;;;;;;;;;5043975;28;20045;-81
2023/03/16 11:05:18;;;;;;;5.65;2.17;;;;;;;;;;5044744;28;20126;-81
2023/03/16 11:07:56;;;;;;;3.55;1.02;;;;;;;;;;5046546;28;20148;-81
2023/03/16 11:10:33;;;;;;;7.65;3.00;;;;;;;;;;5046441;28;20099;-82
2023/03/16 11:13:17;;;;;;;6.82;2.83;;;;;;;;;;5044880;28;20099;-79
2023/03/16 11:15:47;;;;;;;4.05;1.20;;;;;;;;;;5047745;28;20045;-80
2023/03/16 11:18:29;;;;;;;6.38;0.95;;;;;;;;;;5051377;28;20045;-82
2023/03/16 11:21:30;;;;;;;4.70;1.65;;;;;;;;;;5053730;28;20037;-80
2023/03/16 11:23:57;;;;;;;2.67;1.20;;;;;;;;;;5028713;28;20045;-80
2023/03/16 11:26:24;;;;;;;3.05;1.02;;;;;;;;;;5046128;28;20570;-81
2023/03/16 11:28:55;;;;;;;7.07;1.15;;;;;;;;;;5079314;28;20566;-82
2023/03/16 11:31:27;;;;;;;7.93;1.25;;;;;;;;;;5037165;28;20037;-81
2023/03/16 11:33:56;;;;;;;5.03;1.20;;;;;;;;;;5040893;28;20053;-79
2023/03/16 11:36:46;;;;;;;2.20;0.90;;;;;;;;;;5037802;28;20048;-78
2023/03/16 11:39:25;;;;;;;3.00;1.20;;;;;;;;;;5036536;28;20049;-81
2023/03/16 11:42:10;;;;;;;2.28;1.00;;;;;;;;;;5037913;28;20049;-81
2023/03/16 11:44:43;;;;;;;4.68;1.05;;;;;;;;;;5035185;28;20041;-81
2023/03/16 11:47:23;;;;;;;4.43;1.30;;;;;;;;;;5036617;28;20037;-81
2023/03/16 11:49:53;;;;;;;3.35;1.33;;;;;;;;;;5037776;28;20443;-80
2023/03/16 11:52:46;;;;;;;6.88;1.33;;;;;;;;;;5040365;28;20056;-80
2023/03/16 11:55:13;;;;;;;3.33;0.93;;;;;;;;;;5027259;28;20056;-81
2023/03/16 11:57:42;;;;;;;1.85;0.95;;;;;;;;;;5036170;28;20050;-79
2023/03/16 12:00:15;;;;;;;3.38;1.20;;;;;;;;;;5037657;28;20075;-81
2023/03/16 12:02:45;;;;;;;4.80;1.20;;;;;;;;;;5038672;28;20041;-78
2023/03/16 12:05:22;;;;;;;5.75;2.65;;;;;;;;;;5033844;28;20041;-79
2023/03/16 12:07:55;;;;;;;5.25;2.47;;;;;;;;;;5031032;28;20052;-80
2023/03/16 12:10:28;;;;;;;4.53;1.45;;;;;;;;;;5037843;28;20089;-79
2023/03/16 12:13:00;;;;;;;5.13;2.55;;;;;;;;;;5039181;28;20093;-79
2023/03/16 12:15:41;;;;;;;9.50;2.25;;;;;;;;;;5034131;28;20052;-78
2023/03/16 12:18:12;;;;;;;3.83;1.60;;;;;;;;;;5028404;28;20057;-78
2023/03/16 12:20:47;;;;;;;5.28;1.25;;;;;;;;;;5027700;28;20052;-77
2023/03/16 12:23:14;;;;;;;;;;;;;;;;;;5029287;28;20041;-77
2023/03/16 12:25:44;;;;;;;2.13;0.98;;;;;;;;;;5034129;28;19940;-78
2023/03/16 12:28:38;;;;;;;4.07;1.38;;;;;;;;;;5020749;28;20030;-78
2023/03/16 12:31:23;;;;;;;5.45;1.38;;;;;;;;;;5034348;28;20037;-78
2023/03/16 12:34:13;;;;;;;3.78;1.45;;;;;;;;;;5030164;28;20049;-77
2023/03/16 12:36:46;;;;;;;3.67;1.20;;;;;;;;;;5044303;28;20120;-78
2023/03/16 12:39:44;;;;;;;2.80;1.25;;;;;;;;;;5051843;28;20198;-78
2023/03/16 12:42:11;;;;;;;3.65;1.23;;;;;;;;;;5018265;28;20045;-78
2023/03/16 12:44:52;;;;;;;3.60;1.02;;;;;;;;;;5018540;28;20046;-78
2023/03/16 12:47:28;;;;;;;2.72;0.90;;;;;;;;;;5018957;28;20046;-79
2023/03/16 12:50:01;;;;;;;2.05;0.85;;;;;;;;;;5014278;28;20438;-76
2023/03/16 12:52:37;;;;;;;3.08;0.90;;;;;;;;;;5025701;28;20520;-78
2023/03/16 12:55:06;;;;;;;2.53;1.10;;;;;;;;;;5037118;28;20079;-79
2023/03/16 12:57:32;;;;;;;1.23;0.65;;;;;;;;;;5033304;28;20044;-78
2023/03/16 13:00:00;;;;;;;3.10;0.90;;;;;;;;;;5033764;28;20034;-78
2023/03/16 13:02:29;;;;;;;4.68;1.10;;;;;;;;;;5030432;28;20045;-78
2023/03/16 13:05:01;;;;;;;3.47;1.45;;;;;;;;;;5030038;28;20654;-78
2023/03/16 13:07:30;;;;;;;3.63;0.95;;;;;;;;;;5030569;28;20068;-79
2023/03/16 13:10:01;;;;;;;1.88;0.93;;;;;;;;;;5033978;28;20512;-78
2023/03/16 13:12:35;;;;;;;4.70;1.20;;;;;;;;;;5017479;28;20064;-78
2023/03/16 13:15:25;;;;;;;2.78;1.35;;;;;;;;;;5020261;28;20133;-78
2023/03/16 13:18:22;;;;;;;4.03;1.25;;;;;;;;;;5023551;28;20109;-78
2023/03/16 13:20:52;;;;;;;3.17;1.40;;;;;;;;;;5033300;28;20072;-78
2023/03/16 13:23:21;;;;;;;3.35;1.30;;;;;;;;;;5043343;28;20104;-79
2023/03/16 13:26:07;;;;;;;2.72;1.48;;;;;;;;;;5051648;28;20144;-80
2023/03/16 13:28:36;;;;;;;3.58;1.40;;;;;;;;;;5033304;28;20110;-80
2023/03/16 13:31:04;;;;;;;5.38;1.70;;;;;;;;;;5029624;28;20112;-79
2023/03/16 13:33:35;;;;;;;3.42;1.60;;;;;;;;;;5032637;28;20117;-79
2023/03/16 13:36:04;;;;;;;3.78;1.90;;;;;;;;;;5040576;28;20056;-78
2023/03/16 13:38:31;;;;;;;4.30;1.70;;;;;;;;;;5035473;28;20061;-79
2023/03/16 13:41:07;;;;;;;3.95;1.70;;;;;;;;;;5015688;28;20451;-81
2023/03/16 13:43:37;;;;;;;7.47;2.10;;;;;;;;;;5030116;28;20053;-79
2023/03/16 13:46:16;;;;;;;6.65;2.42;;;;;;;;;;5029535;28;20041;-78
2023/03/16 13:48:46;;;;;;;5.78;1.80;;;;;;;;;;5030000;28;20045;-77
2023/03/16 13:51:15;;;;;;;4.45;1.75;;;;;;;;;;5030028;28;20122;-78
2023/03/16 13:53:42;;;;;;;4.18;1.80;;;;;;;;;;5031552;28;20152;-79
2023/03/16 13:56:12;;;;;;;3.25;1.65;;;;;;;;;;5030504;28;20079;-78
2023/03/16 13:58:39;;;;;;;4.38;1.90;;;;;;;;;;5067454;28;20049;-78
2023/03/16 14:01:13;;;;;;;4.90;2.00;;;;;;;;;;5060683;28;20075;-79
2023/03/16 14:03:41;;;;;;;3.10;1.80;;;;;;;;;;5026615;28;20059;-78
2023/03/16 14:06:21;;;;;;;3.70;1.73;;;;;;;;;;5028165;28;20041;-78
2023/03/16 14:08:49;;;;;;;4.70;1.77;;;;;;;;;;5026843;28;20080;-79
2023/03/16 14:11:16;;;;;;;5.07;1.83;;;;;;;;;;5027704;28;20053;-79
2023/03/16 14:13:49;;;;;;;5.80;1.90;;;;;;;;;;5026997;28;22087;-79
2023/03/16 14:16:17;;;;;;;4.55;1.85;;;;;;;;;;5029613;28;20094;-78
2023/03/16 14:18:45;;;;;;;6.40;1.88;;;;;;;;;;5031813;28;20221;-77
2023/03/16 14:21:16;;;;;;;3.92;1.58;;;;;;;;;;5033425;28;20083;-79
2023/03/16 14:23:44;;;;;;;3.20;1.60;;;;;;;;;;5034031;28;20041;-79
2023/03/16 14:26:14;;;;;;;4.88;1.73;;;;;;;;;;5029834;28;20038;-77
2023/03/16 14:28:53;;;;;;;6.97;1.70;;;;;;;;;;5029666;28;20045;-76
2023/03/16 14:31:20;;;;;;;4.80;2.03;;;;;;;;;;5034876;28;20068;-79
2023/03/16 14:33:46;;;;;;;2.92;1.30;;;;;;;;;;5038545;28;20045;-79
2023/03/16 14:36:14;;;;;;;5.50;1.48;;;;;;;;;;5032045;28;20099;-79
2023/03/16 14:38:42;;;;;;;4.03;1.33;;;;;;;;;;5040721;28;20049;-79
2023/03/16 14:41:25;;;;;;;3.38;1.50;;;;;;;;;;5038727;28;20117;-79
2023/03/16 14:43:59;;;;;;;3.20;1.55;;;;;;;;;;5034226;28;20045;-79
2023/03/16 14:46:28;;;;;;;5.85;1.40;;;;;;;;;;5026562;28;20681;-79
2023/03/16 14:49:14;;;;;;;4.75;1.50;;;;;;;;;;5034394;28;20145;-79
2023/03/16 14:51:40;;;;;;;4.85;1.83;;;;;;;;;;5028999;28;20037;-79
2023/03/16 14:54:26;;;;;;;4.57;1.33;;;;;;;;;;5024229;28;20084;-79
2023/03/16 14:56:54;;;;;;;3.38;1.40;;;;;;;;;;5027694;28;20057;-79
2023/03/16 14:59:20;;;;;;;3.45;1.35;;;;;;;;;;5028898;28;20047;-78
2023/03/16 15:01:48;;;;;;;3.50;1.42;;;;;;;;;;5028457;28;20041;-79